Time;durP1;ratioP1;P1;durP2;ratioP2;P2;SDS_P1;SDS_P2;PMS_P1;PMS_P2;Temp;Humidity;BMP_temperature;BMP_pressure;BME280_temperature;BME280_humidity;BME280_pressure;Samples;Min_cycle;Max_cycle;Signal;HPM_P1;HPM_P2
2022/08/21 00:01:30;;;;;;;10.55;7.47;;;;;;;;;;6091503;23;20443;-81
2022/08/21 00:03:55;;;;;;;12.07;7.45;;;;;;;;;;6092348;23;20331;-82
2022/08/21 00:06:22;;;;;;;10.85;6.97;;;;;;;;;;6091409;23;20077;-82
2022/08/21 00:08:47;;;;;;;10.13;7.45;;;;;;;;;;6116609;23;20017;-82
2022/08/21 00:11:13;;;;;;;10.27;7.50;;;;;;;;;;6116006;23;20335;-82
2022/08/21 00:13:39;;;;;;;10.43;7.95;;;;;;;;;;6116524;23;20018;-82
2022/08/21 00:16:04;;;;;;;10.27;8.00;;;;;;;;;;6091801;23;20077;-82
2022/08/21 00:18:30;;;;;;;11.85;7.63;;;;;;;;;;6116440;23;20025;-81
2022/08/21 00:20:55;;;;;;;11.05;7.78;;;;;;;;;;6091551;23;20085;-81
2022/08/21 00:23:21;;;;;;;10.63;7.57;;;;;;;;;;6091960;23;20025;-82
2022/08/21 00:25:47;;;;;;;10.82;7.93;;;;;;;;;;6091736;23;20061;-82
2022/08/21 00:28:13;;;;;;;10.98;7.75;;;;;;;;;;6091831;23;20022;-83
2022/08/21 00:30:39;;;;;;;11.70;8.23;;;;;;;;;;6091719;23;20014;-81
2022/08/21 00:33:06;;;;;;;11.80;7.78;;;;;;;;;;6092428;23;20750;-83
2022/08/21 00:35:34;;;;;;;10.95;8.20;;;;;;;;;;6092580;23;20850;-81
2022/08/21 00:38:00;;;;;;;10.70;8.15;;;;;;;;;;6116275;23;20025;-84
2022/08/21 00:40:33;;;;;;;12.18;7.85;;;;;;;;;;6091475;23;20020;-83
2022/08/21 00:42:58;;;;;;;11.00;8.55;;;;;;;;;;6091493;23;20024;-83
2022/08/21 00:45:24;;;;;;;10.15;7.97;;;;;;;;;;6091299;23;20018;-82
2022/08/21 00:47:54;;;;;;;11.52;8.45;;;;;;;;;;6091211;23;20022;-82
2022/08/21 00:50:21;;;;;;;10.73;8.25;;;;;;;;;;6116306;23;20046;-82
2022/08/21 00:52:46;;;;;;;12.07;8.43;;;;;;;;;;6116798;23;20338;-83
2022/08/21 00:55:13;;;;;;;10.57;8.10;;;;;;;;;;6115667;23;20013;-82
2022/08/21 00:57:42;;;;;;;10.07;7.60;;;;;;;;;;6091523;23;20080;-82
2022/08/21 01:00:12;;;;;;;10.05;7.63;;;;;;;;;;6116669;23;20024;-81
2022/08/21 01:02:38;;;;;;;10.48;8.18;;;;;;;;;;6091450;23;20458;-83
2022/08/21 01:05:04;;;;;;;10.27;7.70;;;;;;;;;;6092936;23;20024;-83
2022/08/21 01:07:30;;;;;;;10.65;7.95;;;;;;;;;;6115118;23;20025;-82
2022/08/21 01:09:55;;;;;;;10.52;8.38;;;;;;;;;;6091742;23;20057;-82
2022/08/21 01:12:20;;;;;;;10.43;7.82;;;;;;;;;;6090651;23;20017;-83
2022/08/21 01:14:46;;;;;;;12.32;8.75;;;;;;;;;;6092025;23;20009;-82
2022/08/21 01:17:13;;;;;;;11.40;8.07;;;;;;;;;;6090960;23;20994;-81
2022/08/21 01:19:39;;;;;;;11.73;8.30;;;;;;;;;;6092482;23;20098;-82
2022/08/21 01:22:05;;;;;;;11.10;8.48;;;;;;;;;;6091049;23;20042;-82
2022/08/21 01:24:33;;;;;;;11.38;8.20;;;;;;;;;;6092469;23;20156;-82
2022/08/21 01:26:59;;;;;;;12.35;8.23;;;;;;;;;;6090491;23;20025;-82
2022/08/21 01:29:39;;;;;;;10.70;8.05;;;;;;;;;;6092304;23;24655;-83
2022/08/21 01:32:11;;;;;;;12.25;8.38;;;;;;;;;;6115268;23;20040;-82
2022/08/21 01:34:39;;;;;;;12.77;8.32;;;;;;;;;;6092122;23;20014;-82
2022/08/21 01:37:05;;;;;;;12.20;8.30;;;;;;;;;;6115932;23;20041;-82
2022/08/21 01:39:30;;;;;;;11.23;8.40;;;;;;;;;;6092074;23;20010;-83
2022/08/21 01:41:56;;;;;;;12.77;8.93;;;;;;;;;;6115505;23;20017;-82
2022/08/21 01:44:22;;;;;;;12.90;8.70;;;;;;;;;;6115612;23;20347;-82
2022/08/21 01:46:48;;;;;;;10.27;8.50;;;;;;;;;;6091265;23;20014;-82
2022/08/21 01:49:14;;;;;;;10.00;8.07;;;;;;;;;;6091298;23;20077;-82
2022/08/21 01:51:39;;;;;;;10.75;7.85;;;;;;;;;;6091341;23;20320;-82
2022/08/21 01:54:04;;;;;;;12.00;7.75;;;;;;;;;;6116540;23;20026;-82
2022/08/21 01:56:36;;;;;;;10.23;8.20;;;;;;;;;;6115530;23;20078;-82
2022/08/21 01:59:01;;;;;;;9.80;7.28;;;;;;;;;;6091411;23;20465;-82
2022/08/21 02:01:27;;;;;;;10.75;7.88;;;;;;;;;;6117326;23;20013;-82
2022/08/21 02:03:52;;;;;;;10.15;7.72;;;;;;;;;;6090758;23;20029;-83
2022/08/21 02:06:17;;;;;;;9.63;7.65;;;;;;;;;;6091141;23;20021;-82
2022/08/21 02:08:43;;;;;;;10.15;7.43;;;;;;;;;;6115744;23;20033;-82
2022/08/21 02:11:09;;;;;;;8.00;6.53;;;;;;;;;;6115177;23;20017;-82
2022/08/21 02:13:34;;;;;;;9.55;6.93;;;;;;;;;;6091508;23;20069;-82
2022/08/21 02:15:59;;;;;;;9.73;6.45;;;;;;;;;;6090618;23;20068;-82
2022/08/21 02:18:24;;;;;;;10.00;6.80;;;;;;;;;;6115811;23;20092;-82
2022/08/21 02:20:50;;;;;;;9.05;6.15;;;;;;;;;;6091217;23;20069;-82
2022/08/21 02:23:16;;;;;;;8.82;5.95;;;;;;;;;;6091423;23;20026;-82
2022/08/21 02:25:41;;;;;;;8.55;6.40;;;;;;;;;;6091142;23;20450;-83
2022/08/21 02:28:13;;;;;;;8.45;5.65;;;;;;;;;;6116109;23;20080;-82
2022/08/21 02:30:42;;;;;;;7.97;5.63;;;;;;;;;;6091734;23;20736;-82
2022/08/21 02:33:09;;;;;;;8.90;6.28;;;;;;;;;;6091459;23;20129;-82
2022/08/21 02:35:34;;;;;;;8.52;5.72;;;;;;;;;;6091939;23;20417;-82
2022/08/21 02:38:02;;;;;;;8.13;6.05;;;;;;;;;;6115881;23;20014;-83
2022/08/21 02:40:30;;;;;;;;;;;;;;;;;;6091180;23;20350;-82
2022/08/21 02:42:56;;;;;;;8.73;5.55;;;;;;;;;;6091392;23;20368;-82
2022/08/21 02:45:21;;;;;;;9.00;5.95;;;;;;;;;;6115005;23;20062;-83
2022/08/21 02:47:55;;;;;;;8.98;5.50;;;;;;;;;;6091141;23;20106;-83
2022/08/21 02:50:24;;;;;;;7.53;5.85;;;;;;;;;;6090164;23;20016;-83
2022/08/21 02:52:52;;;;;;;8.32;5.68;;;;;;;;;;6091588;23;20064;-82
2022/08/21 02:55:18;;;;;;;9.10;5.22;;;;;;;;;;6091339;23;20014;-83
2022/08/21 02:57:43;;;;;;;9.10;5.45;;;;;;;;;;6092724;23;20038;-82
2022/08/21 03:00:11;;;;;;;9.70;5.70;;;;;;;;;;6092906;23;20054;-82
2022/08/21 03:02:37;;;;;;;8.07;4.68;;;;;;;;;;6093110;23;20017;-82
2022/08/21 03:05:03;;;;;;;5.70;4.82;;;;;;;;;;6094139;23;20385;-83
2022/08/21 03:07:29;;;;;;;8.10;3.95;;;;;;;;;;6091766;23;20343;-83
2022/08/21 03:09:54;;;;;;;7.93;4.40;;;;;;;;;;6093193;23;20029;-83
2022/08/21 03:12:19;;;;;;;8.82;4.38;;;;;;;;;;6091984;23;20018;-83
2022/08/21 03:14:44;;;;;;;7.55;4.18;;;;;;;;;;6093487;23;20021;-83
2022/08/21 03:17:10;;;;;;;9.73;4.40;;;;;;;;;;6092034;23;20040;-82
2022/08/21 03:19:36;;;;;;;7.40;3.85;;;;;;;;;;6093387;23;20350;-82
2022/08/21 03:22:04;;;;;;;9.07;4.10;;;;;;;;;;6117064;23;20018;-83
2022/08/21 03:24:29;;;;;;;8.77;4.07;;;;;;;;;;6117500;23;20021;-82
2022/08/21 03:26:54;;;;;;;7.85;3.80;;;;;;;;;;6091291;23;20101;-82
2022/08/21 03:29:20;;;;;;;6.25;4.35;;;;;;;;;;6093279;23;20363;-83
2022/08/21 03:31:45;;;;;;;9.30;4.60;;;;;;;;;;6091905;23;20510;-82
2022/08/21 03:34:10;;;;;;;8.02;4.05;;;;;;;;;;6116971;23;20431;-83
2022/08/21 03:36:36;;;;;;;7.43;3.97;;;;;;;;;;6116783;23;20739;-81
2022/08/21 03:39:02;;;;;;;6.22;3.90;;;;;;;;;;6093315;23;20022;-82
2022/08/21 03:41:27;;;;;;;6.68;4.07;;;;;;;;;;6092008;23;20056;-82
2022/08/21 03:43:53;;;;;;;6.82;3.92;;;;;;;;;;6092430;23;20047;-82
2022/08/21 03:46:18;;;;;;;8.63;4.07;;;;;;;;;;6116233;23;20477;-82
2022/08/21 03:48:44;;;;;;;7.95;3.85;;;;;;;;;;6091626;23;20022;-83
2022/08/21 03:51:09;;;;;;;10.95;4.22;;;;;;;;;;6092261;23;20451;-82
2022/08/21 03:53:35;;;;;;;8.13;4.20;;;;;;;;;;6117251;23;20089;-82
2022/08/21 03:56:01;;;;;;;7.38;4.00;;;;;;;;;;6092413;23;20332;-82
2022/08/21 03:58:27;;;;;;;7.07;3.80;;;;;;;;;;6092004;23;20020;-82
2022/08/21 04:00:58;;;;;;;7.28;4.10;;;;;;;;;;6091792;23;20093;-82
2022/08/21 04:03:25;;;;;;;7.75;3.80;;;;;;;;;;6092185;23;20022;-82
2022/08/21 04:05:50;;;;;;;8.55;3.75;;;;;;;;;;6091717;23;20013;-82
2022/08/21 04:08:18;;;;;;;8.85;4.47;;;;;;;;;;6091990;23;20075;-82
2022/08/21 04:10:45;;;;;;;5.25;3.30;;;;;;;;;;6091751;23;20029;-83
2022/08/21 04:13:10;;;;;;;7.28;3.70;;;;;;;;;;6116403;23;20022;-83
2022/08/21 04:15:36;;;;;;;8.60;4.32;;;;;;;;;;6116464;23;20600;-82
2022/08/21 04:18:01;;;;;;;8.38;4.15;;;;;;;;;;6116971;23;20230;-82
2022/08/21 04:20:27;;;;;;;8.60;5.25;;;;;;;;;;6116411;23;20013;-83
2022/08/21 04:22:52;;;;;;;8.40;4.07;;;;;;;;;;6092095;23;20017;-82
2022/08/21 04:25:19;;;;;;;6.38;4.13;;;;;;;;;;6091682;23;20018;-83
2022/08/21 04:27:48;;;;;;;7.60;4.05;;;;;;;;;;6091896;23;20137;-82
2022/08/21 04:30:14;;;;;;;8.80;3.78;;;;;;;;;;6091646;23;20064;-83
2022/08/21 04:32:43;;;;;;;7.75;3.58;;;;;;;;;;6091599;23;20033;-82
2022/08/21 04:35:10;;;;;;;6.97;3.70;;;;;;;;;;6092085;23;20021;-82
2022/08/21 04:37:36;;;;;;;6.95;3.58;;;;;;;;;;6116059;23;20020;-83
2022/08/21 04:40:03;;;;;;;8.05;3.30;;;;;;;;;;6116918;23;20354;-83
2022/08/21 04:42:28;;;;;;;8.73;3.45;;;;;;;;;;6115625;23;20006;-82
2022/08/21 04:44:56;;;;;;;5.82;3.38;;;;;;;;;;6091974;23;20488;-82
2022/08/21 04:47:21;;;;;;;8.07;3.50;;;;;;;;;;6090804;23;20026;-82
2022/08/21 04:49:47;;;;;;;5.93;3.08;;;;;;;;;;6067906;23;20088;-82
2022/08/21 04:52:19;;;;;;;6.38;3.40;;;;;;;;;;6091455;23;20026;-82
2022/08/21 04:54:45;;;;;;;6.30;3.67;;;;;;;;;;6068103;23;20022;-82
2022/08/21 04:57:11;;;;;;;8.57;3.70;;;;;;;;;;6066638;23;20577;-82
2022/08/21 04:59:41;;;;;;;8.10;3.58;;;;;;;;;;6068068;23;20033;-81
2022/08/21 05:02:08;;;;;;;7.82;3.60;;;;;;;;;;6067282;23;20026;-82
2022/08/21 05:04:34;;;;;;;;;;;;;;;;;;6093061;23;20014;-83
2022/08/21 05:07:02;;;;;;;7.28;3.53;;;;;;;;;;6066742;23;20314;-83
2022/08/21 05:09:28;;;;;;;5.07;3.20;;;;;;;;;;6068299;23;20014;-82
2022/08/21 05:11:54;;;;;;;7.85;3.50;;;;;;;;;;6066816;23;20600;-83
2022/08/21 05:14:19;;;;;;;7.00;3.65;;;;;;;;;;6092114;23;20020;-82
2022/08/21 05:16:46;;;;;;;8.18;3.45;;;;;;;;;;6067101;23;20022;-83
2022/08/21 05:19:12;;;;;;;6.18;3.05;;;;;;;;;;6067397;23;20105;-82
2022/08/21 05:21:40;;;;;;;8.68;3.15;;;;;;;;;;6067361;23;20036;-82
2022/08/21 05:24:06;;;;;;;8.50;3.70;;;;;;;;;;6067668;23;20022;-83
2022/08/21 05:26:32;;;;;;;7.43;3.28;;;;;;;;;;6067340;23;20065;-83
2022/08/21 05:28:57;;;;;;;5.82;3.33;;;;;;;;;;6067210;23;20130;-82
2022/08/21 05:31:23;;;;;;;9.02;3.90;;;;;;;;;;6067479;23;20037;-82
2022/08/21 05:33:48;;;;;;;6.25;3.25;;;;;;;;;;6067674;23;20061;-83
2022/08/21 05:36:14;;;;;;;5.45;3.22;;;;;;;;;;6066975;23;20014;-82
2022/08/21 05:38:40;;;;;;;6.47;3.42;;;;;;;;;;6067388;23;20076;-83
2022/08/21 05:41:05;;;;;;;6.57;3.30;;;;;;;;;;6067620;23;20025;-83
2022/08/21 05:43:32;;;;;;;9.90;3.20;;;;;;;;;;6091744;23;20073;-83
2022/08/21 05:46:00;;;;;;;6.10;2.90;;;;;;;;;;6091764;23;20021;-82
2022/08/21 05:48:26;;;;;;;6.32;2.97;;;;;;;;;;6079766;23;20124;-82
2022/08/21 05:50:52;;;;;;;6.57;2.67;;;;;;;;;;6114905;23;20547;-83
2022/08/21 05:53:19;;;;;;;7.95;3.58;;;;;;;;;;6091185;23;20038;-82
2022/08/21 05:55:45;;;;;;;9.30;3.17;;;;;;;;;;6091453;23;20402;-82
2022/08/21 05:58:11;;;;;;;8.32;2.55;;;;;;;;;;6091267;23;20041;-82
2022/08/21 06:00:36;;;;;;;7.80;2.92;;;;;;;;;;6115810;23;20021;-82
2022/08/21 06:03:02;;;;;;;8.10;2.80;;;;;;;;;;6091357;23;20017;-83
2022/08/21 06:05:28;;;;;;;6.38;2.83;;;;;;;;;;6091409;23;20493;-83
2022/08/21 06:07:53;;;;;;;4.93;2.55;;;;;;;;;;6091184;23;20018;-83
2022/08/21 06:10:19;;;;;;;5.75;3.13;;;;;;;;;;6090802;23;20029;-83
2022/08/21 06:12:44;;;;;;;6.53;3.10;;;;;;;;;;6091799;23;20053;-82
2022/08/21 06:15:30;;;;;;;4.13;2.20;;;;;;;;;;6115508;23;20348;-82
2022/08/21 06:17:55;;;;;;;9.80;2.75;;;;;;;;;;6003955;23;20581;-83
2022/08/21 06:20:21;;;;;;;7.35;2.95;;;;;;;;;;5979946;23;20124;-82
2022/08/21 06:22:46;;;;;;;6.28;2.65;;;;;;;;;;6003799;23;20015;-82
2022/08/21 06:25:12;;;;;;;5.00;2.60;;;;;;;;;;6003443;23;20020;-83
2022/08/21 06:27:37;;;;;;;5.03;2.58;;;;;;;;;;6003140;23;20023;-84
2022/08/21 06:30:05;;;;;;;7.18;2.60;;;;;;;;;;5980998;23;20030;-83
2022/08/21 06:32:30;;;;;;;4.25;2.20;;;;;;;;;;6004667;23;20052;-83
2022/08/21 06:34:56;;;;;;;5.95;2.30;;;;;;;;;;5990668;23;20027;-83
2022/08/21 06:37:22;;;;;;;7.63;2.60;;;;;;;;;;6004178;23;20027;-83
2022/08/21 06:39:50;;;;;;;6.38;2.28;;;;;;;;;;6030777;23;20403;-82
2022/08/21 06:42:16;;;;;;;4.93;2.45;;;;;;;;;;6004944;23;20455;-83
2022/08/21 06:44:42;;;;;;;4.55;2.10;;;;;;;;;;6005938;23;20019;-83
2022/08/21 06:47:08;;;;;;;6.22;2.35;;;;;;;;;;6027444;23;20559;-83
2022/08/21 06:49:33;;;;;;;5.47;2.10;;;;;;;;;;6007052;23;20471;-82
2022/08/21 06:51:59;;;;;;;4.80;2.15;;;;;;;;;;5980392;23;20023;-83
2022/08/21 06:54:24;;;;;;;6.40;2.40;;;;;;;;;;6032834;23;20104;-83
2022/08/21 06:56:49;;;;;;;7.07;2.20;;;;;;;;;;6091593;23;20014;-83
2022/08/21 06:59:15;;;;;;;8.77;2.10;;;;;;;;;;6092493;23;20089;-83
2022/08/21 07:01:41;;;;;;;5.47;1.80;;;;;;;;;;6115981;23;20032;-83
2022/08/21 07:04:07;;;;;;;6.05;1.85;;;;;;;;;;6108448;23;20064;-83
2022/08/21 07:06:32;;;;;;;6.68;1.98;;;;;;;;;;6091175;23;20076;-84
2022/08/21 07:08:58;;;;;;;7.65;2.20;;;;;;;;;;6091688;23;20021;-80
2022/08/21 07:11:24;;;;;;;8.15;2.20;;;;;;;;;;6091110;23;20061;-80
2022/08/21 07:13:52;;;;;;;6.70;1.80;;;;;;;;;;6091101;23;20046;-80
2022/08/21 07:16:18;;;;;;;5.65;1.90;;;;;;;;;;6090944;23;20038;-80
2022/08/21 07:18:43;;;;;;;3.72;1.75;;;;;;;;;;6091019;23;20052;-81
2022/08/21 07:21:09;;;;;;;5.65;1.95;;;;;;;;;;6091381;23;20109;-80
2022/08/21 07:23:40;;;;;;;4.15;1.50;;;;;;;;;;6091763;23;20016;-80
2022/08/21 07:26:06;;;;;;;4.72;1.40;;;;;;;;;;6091359;23;20025;-81
2022/08/21 07:28:32;;;;;;;6.57;1.67;;;;;;;;;;6115468;23;20351;-81
2022/08/21 07:30:58;;;;;;;5.60;1.40;;;;;;;;;;6091429;23;20509;-81
2022/08/21 07:33:26;;;;;;;4.53;1.47;;;;;;;;;;6091548;23;20018;-81
2022/08/21 07:35:51;;;;;;;10.63;2.03;;;;;;;;;;6091313;23;20018;-80
2022/08/21 07:38:18;;;;;;;7.53;1.70;;;;;;;;;;6115649;23;20013;-81
2022/08/21 07:40:44;;;;;;;5.80;1.40;;;;;;;;;;6116019;23;20017;-81
2022/08/21 07:43:11;;;;;;;3.00;1.30;;;;;;;;;;6090975;23;20696;-81
2022/08/21 07:45:36;;;;;;;4.68;1.27;;;;;;;;;;6091559;23;20017;-80
2022/08/21 07:48:02;;;;;;;4.03;1.10;;;;;;;;;;6114988;23;20030;-81
2022/08/21 07:50:27;;;;;;;4.85;1.50;;;;;;;;;;6090395;23;20566;-81
2022/08/21 07:52:52;;;;;;;4.65;1.50;;;;;;;;;;6091678;23;20021;-82
2022/08/21 07:55:19;;;;;;;4.20;1.10;;;;;;;;;;6066895;23;20022;-82
2022/08/21 07:57:45;;;;;;;4.23;1.17;;;;;;;;;;6067412;23;20069;-82
2022/08/21 08:00:14;;;;;;;4.20;1.00;;;;;;;;;;6068211;23;20450;-82
2022/08/21 08:02:40;;;;;;;4.90;1.25;;;;;;;;;;6066918;23;20101;-82
2022/08/21 08:05:09;;;;;;;3.58;1.17;;;;;;;;;;6068630;23;20496;-82
2022/08/21 08:07:35;;;;;;;3.95;1.20;;;;;;;;;;6091287;23;20081;-83
2022/08/21 08:10:03;;;;;;;4.40;1.20;;;;;;;;;;6091666;23;20048;-82
2022/08/21 08:12:29;;;;;;;3.40;1.10;;;;;;;;;;6065697;23;20006;-82
2022/08/21 08:14:58;;;;;;;3.75;1.30;;;;;;;;;;6067619;23;20528;-82
2022/08/21 08:17:24;;;;;;;4.93;1.13;;;;;;;;;;6066494;23;20029;-82
2022/08/21 08:19:50;;;;;;;4.22;1.00;;;;;;;;;;6091799;23;20017;-82
2022/08/21 08:22:18;;;;;;;4.50;1.00;;;;;;;;;;6066604;23;20021;-81
2022/08/21 08:24:44;;;;;;;5.07;1.55;;;;;;;;;;6068519;23;20077;-83
2022/08/21 08:27:10;;;;;;;3.95;1.08;;;;;;;;;;6065943;23;20614;-82
2022/08/21 08:29:35;;;;;;;3.28;0.88;;;;;;;;;;6067912;23;20013;-83
2022/08/21 08:32:00;;;;;;;4.68;1.00;;;;;;;;;;6066797;23;20013;-84
2022/08/21 08:34:26;;;;;;;4.00;1.08;;;;;;;;;;6068076;23;20051;-82
2022/08/21 08:36:53;;;;;;;5.25;1.10;;;;;;;;;;6090128;23;20018;-82
2022/08/21 08:39:18;;;;;;;4.03;1.00;;;;;;;;;;6091881;23;20018;-82
2022/08/21 08:41:45;;;;;;;4.57;1.10;;;;;;;;;;6067034;23;20080;-83
2022/08/21 08:44:10;;;;;;;5.07;1.20;;;;;;;;;;6067815;23;20021;-82
2022/08/21 08:46:44;;;;;;;3.22;1.00;;;;;;;;;;6067713;23;20033;-82
2022/08/21 08:49:09;;;;;;;4.57;1.65;;;;;;;;;;6079242;23;20477;-82
2022/08/21 08:51:51;;;;;;;5.38;1.17;;;;;;;;;;6117346;23;20052;-82
2022/08/21 08:54:31;;;;;;;3.67;1.33;;;;;;;;;;6115507;23;20014;-83
2022/08/21 08:56:58;;;;;;;5.57;1.10;;;;;;;;;;6090821;23;20010;-83
2022/08/21 08:59:43;;;;;;;5.55;1.10;;;;;;;;;;6115756;23;20075;-83
2022/08/21 09:02:11;;;;;;;5.93;1.30;;;;;;;;;;6113765;23;20399;-82
2022/08/21 09:04:36;;;;;;;4.15;1.20;;;;;;;;;;6092079;23;20034;-83
2022/08/21 09:07:13;;;;;;;6.68;1.63;;;;;;;;;;6114367;23;20060;-82
2022/08/21 09:10:17;;;;;;;4.95;1.30;;;;;;;;;;6117243;23;20128;-83
2022/08/21 09:13:03;;;;;;;6.75;1.30;;;;;;;;;;6048540;23;20089;-84
2022/08/21 09:15:41;;;;;;;3.88;1.05;;;;;;;;;;6116931;23;20045;-83
2022/08/21 09:18:31;;;;;;;5.72;1.40;;;;;;;;;;6091035;23;20022;-83
2022/08/21 09:21:09;;;;;;;6.40;1.20;;;;;;;;;;6114294;23;20013;-83
2022/08/21 09:23:47;;;;;;;5.93;1.60;;;;;;;;;;6091377;23;20392;-83
2022/08/21 09:26:21;;;;;;;6.38;1.50;;;;;;;;;;6115775;23;20347;-82
2022/08/21 09:28:52;;;;;;;6.60;1.55;;;;;;;;;;6090654;23;20101;-80
2022/08/21 09:31:38;;;;;;;4.68;1.55;;;;;;;;;;6090778;23;20065;-82
2022/08/21 09:34:07;;;;;;;5.67;1.40;;;;;;;;;;6092494;23;20025;-82
2022/08/21 09:36:36;;;;;;;5.47;1.20;;;;;;;;;;6091050;23;20014;-82
2022/08/21 09:39:03;;;;;;;4.05;1.10;;;;;;;;;;6116206;23;20077;-83
2022/08/21 09:41:31;;;;;;;4.03;1.10;;;;;;;;;;6090226;23;20018;-82
2022/08/21 09:43:59;;;;;;;6.97;1.33;;;;;;;;;;6114397;23;20030;-82
2022/08/21 09:46:26;;;;;;;7.03;1.40;;;;;;;;;;6089811;23;20512;-83
2022/08/21 09:48:56;;;;;;;3.67;1.25;;;;;;;;;;6089330;23;20017;-83
2022/08/21 09:51:26;;;;;;;4.78;0.90;;;;;;;;;;6091208;23;20094;-83
2022/08/21 09:54:12;;;;;;;4.78;1.33;;;;;;;;;;6090332;23;20088;-82
2022/08/21 09:59:45;;;;;;;3.50;1.20;;;;;;;;;;6117917;23;20016;-83
2022/08/21 10:02:26;;;;;;;3.63;0.87;;;;;;;;;;6116005;23;20425;-82
2022/08/21 10:04:57;;;;;;;2.28;0.70;;;;;;;;;;6115868;23;20096;-81
2022/08/21 10:07:25;;;;;;;3.58;0.90;;;;;;;;;;6092180;23;20080;-81
2022/08/21 10:10:06;;;;;;;4.75;0.90;;;;;;;;;;6093591;23;20449;-82
2022/08/21 10:13:10;;;;;;;3.08;0.80;;;;;;;;;;6117160;23;20090;-81
2022/08/21 10:15:54;;;;;;;3.22;0.75;;;;;;;;;;6117529;23;20017;-82
2022/08/21 10:18:50;;;;;;;2.55;0.90;;;;;;;;;;6117386;23;20025;-81
2022/08/21 10:21:23;;;;;;;4.45;0.85;;;;;;;;;;6117159;23;20022;-81
2022/08/21 10:24:04;;;;;;;3.50;0.80;;;;;;;;;;6117424;23;20010;-82
2022/08/21 10:26:40;;;;;;;2.33;0.65;;;;;;;;;;6117158;23;20014;-81
2022/08/21 10:29:40;;;;;;;2.10;0.60;;;;;;;;;;6117591;23;20525;-81
2022/08/21 10:32:27;;;;;;;4.25;0.88;;;;;;;;;;6092308;23;20457;-82
2022/08/21 10:35:11;;;;;;;5.43;0.80;;;;;;;;;;6119471;23;20045;-83
2022/08/21 10:38:01;;;;;;;2.80;0.90;;;;;;;;;;6117310;23;20022;-82
2022/08/21 10:40:35;;;;;;;2.90;0.93;;;;;;;;;;6118844;23;20413;-82
2022/08/21 10:43:32;;;;;;;2.55;0.70;;;;;;;;;;6117599;23;20018;-82
2022/08/21 10:46:00;;;;;;;2.35;0.70;;;;;;;;;;6017311;23;20022;-82
2022/08/21 10:48:57;;;;;;;2.88;0.68;;;;;;;;;;6117036;23;20494;-81
2022/08/21 10:51:27;;;;;;;3.03;0.60;;;;;;;;;;6091309;23;20021;-81
2022/08/21 10:54:12;;;;;;;2.95;0.57;;;;;;;;;;6116958;23;20331;-81
2022/08/21 10:56:41;;;;;;;2.20;0.60;;;;;;;;;;6092469;23;20049;-82
2022/08/21 10:59:31;;;;;;;1.77;0.52;;;;;;;;;;6093279;23;20617;-82
2022/08/21 11:02:02;;;;;;;1.67;0.57;;;;;;;;;;6092283;23;20040;-82
2022/08/21 11:04:48;;;;;;;2.90;0.60;;;;;;;;;;6117715;23;20022;-82
2022/08/21 11:07:21;;;;;;;3.17;0.60;;;;;;;;;;6116391;23;20025;-82
2022/08/21 11:09:48;;;;;;;2.72;0.65;;;;;;;;;;6119480;23;20092;-82
2022/08/21 11:12:23;;;;;;;2.58;0.70;;;;;;;;;;6116784;23;20025;-82
2022/08/21 11:14:56;;;;;;;3.30;0.73;;;;;;;;;;6118144;23;20454;-82
2022/08/21 11:17:26;;;;;;;3.35;0.80;;;;;;;;;;6116067;23;20014;-82
2022/08/21 11:20:23;;;;;;;1.80;0.50;;;;;;;;;;6093571;23;20014;-82
2022/08/21 11:22:56;;;;;;;4.07;0.50;;;;;;;;;;6058248;23;20014;-82
2022/08/21 11:25:34;;;;;;;1.95;0.60;;;;;;;;;;6092183;23;20017;-82
2022/08/21 11:28:19;;;;;;;1.67;0.43;;;;;;;;;;6092718;23;20022;-81
2022/08/21 11:30:59;;;;;;;3.00;0.35;;;;;;;;;;6097984;23;20477;-82
2022/08/21 11:33:30;;;;;;;1.75;0.50;;;;;;;;;;6092244;23;20742;-82
2022/08/21 11:36:03;;;;;;;3.03;0.63;;;;;;;;;;6117903;23;20022;-81
2022/08/21 11:38:39;;;;;;;2.72;0.60;;;;;;;;;;6119063;23;20092;-81
2022/08/21 11:41:22;;;;;;;2.47;0.60;;;;;;;;;;6092734;23;20092;-82
2022/08/21 11:43:56;;;;;;;3.67;0.63;;;;;;;;;;6092729;23;20014;-82
2022/08/21 11:46:42;;;;;;;2.20;0.60;;;;;;;;;;6118470;23;20509;-81
2022/08/21 11:49:20;;;;;;;2.17;0.68;;;;;;;;;;6116373;23;20458;-81
2022/08/21 11:52:04;;;;;;;2.67;0.65;;;;;;;;;;6116287;23;20093;-82
2022/08/21 11:54:56;;;;;;;2.03;0.50;;;;;;;;;;6119041;23;20013;-81
2022/08/21 11:57:25;;;;;;;3.00;0.50;;;;;;;;;;6091544;23;20022;-82
2022/08/21 12:00:01;;;;;;;2.53;0.70;;;;;;;;;;6117140;23;20505;-81
2022/08/21 12:02:35;;;;;;;2.75;0.85;;;;;;;;;;6115499;23;20026;-82
2022/08/21 12:05:07;;;;;;;2.40;0.60;;;;;;;;;;6117073;23;20339;-81
2022/08/21 12:07:37;;;;;;;2.03;0.63;;;;;;;;;;6091314;23;20014;-81
2022/08/21 12:10:09;;;;;;;2.95;0.50;;;;;;;;;;6116873;23;20089;-82
2022/08/21 12:12:37;;;;;;;4.35;0.80;;;;;;;;;;6116043;23;20016;-81
2022/08/21 12:15:21;;;;;;;2.97;0.85;;;;;;;;;;6117156;23;20020;-82
2022/08/21 12:18:25;;;;;;;2.13;0.50;;;;;;;;;;6118259;23;20070;-82
2022/08/21 12:21:02;;;;;;;1.95;0.60;;;;;;;;;;6108972;23;20014;-82
2022/08/21 12:23:29;;;;;;;;;;;;;;;;;;6116630;23;20534;-81
2022/08/21 12:26:03;;;;;;;2.97;0.70;;;;;;;;;;6090874;23;19912;-81
2022/08/21 12:28:30;;;;;;;3.13;0.68;;;;;;;;;;6117571;23;20025;-81
2022/08/21 12:30:57;;;;;;;3.50;0.65;;;;;;;;;;6091591;23;20447;-81
2022/08/21 12:33:35;;;;;;;2.85;0.95;;;;;;;;;;6091539;23;20054;-81
2022/08/21 12:36:07;;;;;;;2.80;0.60;;;;;;;;;;6092256;23;20391;-81
2022/08/21 12:38:44;;;;;;;3.28;1.10;;;;;;;;;;6091099;23;20438;-81
2022/08/21 12:41:15;;;;;;;3.70;0.75;;;;;;;;;;6091363;23;20022;-82
2022/08/21 12:43:43;;;;;;;3.17;0.80;;;;;;;;;;6091394;23;20022;-82
2022/08/21 12:46:18;;;;;;;3.63;0.55;;;;;;;;;;6091503;23;20013;-81
2022/08/21 12:49:15;;;;;;;3.25;0.90;;;;;;;;;;6115722;23;20042;-82
2022/08/21 12:51:54;;;;;;;;;;;;;;;;;;6115952;23;20077;-81
2022/08/21 12:54:29;;;;;;;3.53;0.90;;;;;;;;;;6092051;23;19909;-81
2022/08/21 12:56:58;;;;;;;2.95;0.80;;;;;;;;;;6090921;23;20013;-81
2022/08/21 12:59:23;;;;;;;2.90;0.73;;;;;;;;;;6092121;23;20465;-81
2022/08/21 13:01:51;;;;;;;4.45;0.77;;;;;;;;;;6115521;23;20014;-81
2022/08/21 13:04:22;;;;;;;3.72;0.90;;;;;;;;;;6091806;23;20471;-81
2022/08/21 13:06:51;;;;;;;2.90;0.90;;;;;;;;;;6115695;23;20458;-81
2022/08/21 13:09:18;;;;;;;3.25;1.05;;;;;;;;;;6091540;23;20506;-81
2022/08/21 13:11:45;;;;;;;2.03;0.75;;;;;;;;;;6091193;23;20013;-81
2022/08/21 13:14:23;;;;;;;3.83;0.88;;;;;;;;;;6091556;23;20048;-81
2022/08/21 13:16:56;;;;;;;4.30;1.20;;;;;;;;;;6090278;23;20018;-81
2022/08/21 13:19:23;;;;;;;3.28;1.00;;;;;;;;;;6091157;23;20022;-81
2022/08/21 13:21:48;;;;;;;4.10;0.90;;;;;;;;;;6090909;23;20038;-81
2022/08/21 13:24:22;;;;;;;3.45;1.00;;;;;;;;;;6115454;23;20246;-81
2022/08/21 13:26:48;;;;;;;4.47;1.10;;;;;;;;;;6091537;23;20022;-81
2022/08/21 13:29:17;;;;;;;3.22;0.90;;;;;;;;;;6090434;23;20486;-81
2022/08/21 13:31:53;;;;;;;2.72;1.00;;;;;;;;;;6115492;23;20025;-80
2022/08/21 13:34:21;;;;;;;6.22;1.23;;;;;;;;;;6092357;23;20018;-81
2022/08/21 13:36:47;;;;;;;4.50;0.90;;;;;;;;;;6090896;23;20030;-81
2022/08/21 13:39:16;;;;;;;4.63;1.15;;;;;;;;;;6091835;23;20026;-81
2022/08/21 13:41:44;;;;;;;3.60;1.10;;;;;;;;;;6090643;23;20014;-81
2022/08/21 13:44:19;;;;;;;3.85;1.00;;;;;;;;;;6091941;23;20025;-82
2022/08/21 13:46:44;;;;;;;4.78;0.95;;;;;;;;;;6091069;23;20013;-81
2022/08/21 13:49:10;;;;;;;2.88;0.90;;;;;;;;;;6090839;23;20037;-81
2022/08/21 13:51:36;;;;;;;6.97;1.35;;;;;;;;;;6090499;23;20014;-81
2022/08/21 13:54:18;;;;;;;3.75;0.90;;;;;;;;;;6116099;23;20029;-81
2022/08/21 13:56:46;;;;;;;5.20;0.95;;;;;;;;;;6090457;23;20036;-81
2022/08/21 13:59:12;;;;;;;5.32;1.20;;;;;;;;;;6090958;23;20022;-81
2022/08/21 14:01:48;;;;;;;5.40;1.20;;;;;;;;;;6090958;23;20014;-81
2022/08/21 14:04:22;;;;;;;7.60;1.58;;;;;;;;;;6090421;23;20049;-82
2022/08/21 14:06:48;;;;;;;4.50;1.35;;;;;;;;;;6090674;23;20014;-81
2022/08/21 14:09:26;;;;;;;4.05;1.00;;;;;;;;;;6090792;23;20030;-81
2022/08/21 14:11:53;;;;;;;2.97;0.98;;;;;;;;;;6090350;23;20021;-81
2022/08/21 14:14:25;;;;;;;3.17;0.93;;;;;;;;;;6115653;23;20020;-82
2022/08/21 14:16:57;;;;;;;3.28;0.90;;;;;;;;;;6114688;23;20120;-82
2022/08/21 14:19:24;;;;;;;3.58;1.35;;;;;;;;;;6090054;23;20068;-79
2022/08/21 14:21:50;;;;;;;3.80;1.07;;;;;;;;;;6090368;23;20041;-79
2022/08/21 14:24:21;;;;;;;3.92;1.05;;;;;;;;;;6091284;23;20249;-81
2022/08/21 14:27:04;;;;;;;5.43;1.05;;;;;;;;;;6115032;23;20017;-82
2022/08/21 14:29:38;;;;;;;5.22;1.45;;;;;;;;;;6091135;23;20044;-82
2022/08/21 14:32:14;;;;;;;4.10;1.10;;;;;;;;;;6113838;23;20057;-82
2022/08/21 14:34:40;;;;;;;4.33;1.37;;;;;;;;;;6090808;23;20081;-78
2022/08/21 14:37:05;;;;;;;4.85;1.10;;;;;;;;;;6090425;23;20018;-79
2022/08/21 14:39:31;;;;;;;4.15;1.00;;;;;;;;;;6090978;23;20040;-79
2022/08/21 14:41:58;;;;;;;3.90;1.00;;;;;;;;;;6089157;23;20458;-79
2022/08/21 14:44:23;;;;;;;4.43;1.15;;;;;;;;;;6116013;23;20073;-79
2022/08/21 14:46:48;;;;;;;7.40;1.30;;;;;;;;;;6090565;23;20033;-78
2022/08/21 14:49:14;;;;;;;3.53;1.10;;;;;;;;;;6090004;23;20120;-78
2022/08/21 14:51:39;;;;;;;4.15;1.00;;;;;;;;;;6114844;23;20021;-77
2022/08/21 14:54:06;;;;;;;4.50;1.10;;;;;;;;;;6093569;23;20022;-79
2022/08/21 14:56:31;;;;;;;4.00;1.10;;;;;;;;;;6092010;23;20435;-79
2022/08/21 14:59:02;;;;;;;4.82;1.27;;;;;;;;;;6092440;23;20014;-79
2022/08/21 15:01:28;;;;;;;5.10;1.40;;;;;;;;;;6092122;23;20152;-79